sensor_id;sensor_type;location;lat;lon;timestamp;temperature;humidity
29551;DHT22;16488;52.396;10.696;2023-02-11T00:00:52;5.10;99.90
29551;DHT22;16488;52.396;10.696;2023-02-11T00:03:18;5.20;99.90
29551;DHT22;16488;52.396;10.696;2023-02-11T00:05:44;5.20;99.90
29551;DHT22;16488;52.396;10.696;2023-02-11T00:08:09;5.20;99.90
29551;DHT22;16488;52.396;10.696;2023-02-11T00:10:41;5.30;99.90
29551;DHT22;16488;52.396;10.696;2023-02-11T00:13:07;5.30;99.90
29551;DHT22;16488;52.396;10.696;2023-02-11T00:15:32;5.30;99.90
29551;DHT22;16488;52.396;10.696;2023-02-11T00:17:58;5.30;99.90
29551;DHT22;16488;52.396;10.696;2023-02-11T00:20:23;5.40;99.90
29551;DHT22;16488;52.396;10.696;2023-02-11T00:22:49;5.40;99.90
29551;DHT22;16488;52.396;10.696;2023-02-11T00:25:14;5.40;99.90
29551;DHT22;16488;52.396;10.696;2023-02-11T00:27:40;5.50;99.90
29551;DHT22;16488;52.396;10.696;2023-02-11T00:30:06;5.40;99.90
29551;DHT22;16488;52.396;10.696;2023-02-11T00:32:32;5.50;99.90
29551;DHT22;16488;52.396;10.696;2023-02-11T00:34:57;5.40;99.90
29551;DHT22;16488;52.396;10.696;2023-02-11T00:37:23;5.50;99.90
29551;DHT22;16488;52.396;10.696;2023-02-11T00:39:48;5.50;99.90
29551;DHT22;16488;52.396;10.696;2023-02-11T00:42:14;5.50;99.90
29551;DHT22;16488;52.396;10.696;2023-02-11T00:44:40;5.60;99.90
29551;DHT22;16488;52.396;10.696;2023-02-11T00:47:06;5.60;99.90
29551;DHT22;16488;52.396;10.696;2023-02-11T00:49:31;5.60;99.90
29551;DHT22;16488;52.396;10.696;2023-02-11T00:51:57;5.60;99.90
29551;DHT22;16488;52.396;10.696;2023-02-11T00:54:23;5.60;99.90
29551;DHT22;16488;52.396;10.696;2023-02-11T00:56:48;5.60;99.90
29551;DHT22;16488;52.396;10.696;2023-02-11T00:59:14;5.60;99.90
29551;DHT22;16488;52.396;10.696;2023-02-11T01:01:39;5.60;99.90
29551;DHT22;16488;52.396;10.696;2023-02-11T01:04:05;5.60;99.90
29551;DHT22;16488;52.396;10.696;2023-02-11T01:06:31;5.60;99.90
29551;DHT22;16488;52.396;10.696;2023-02-11T01:08:56;5.60;99.90
29551;DHT22;16488;52.396;10.696;2023-02-11T01:11:22;5.60;99.90
29551;DHT22;16488;52.396;10.696;2023-02-11T01:13:48;5.60;99.90
29551;DHT22;16488;52.396;10.696;2023-02-11T01:16:14;5.60;99.90
29551;DHT22;16488;52.396;10.696;2023-02-11T01:18:40;5.60;99.90
29551;DHT22;16488;52.396;10.696;2023-02-11T01:21:08;5.60;99.90
29551;DHT22;16488;52.396;10.696;2023-02-11T01:23:34;5.60;99.90
29551;DHT22;16488;52.396;10.696;2023-02-11T01:26:02;5.60;99.90
29551;DHT22;16488;52.396;10.696;2023-02-11T01:28:29;5.60;99.90
29551;DHT22;16488;52.396;10.696;2023-02-11T01:30:55;5.60;99.90
29551;DHT22;16488;52.396;10.696;2023-02-11T01:33:21;5.60;99.90
29551;DHT22;16488;52.396;10.696;2023-02-11T01:35:47;5.60;99.90
29551;DHT22;16488;52.396;10.696;2023-02-11T01:38:22;5.60;99.90
29551;DHT22;16488;52.396;10.696;2023-02-11T01:40:50;5.60;99.90
29551;DHT22;16488;52.396;10.696;2023-02-11T01:43:16;5.70;99.90
29551;DHT22;16488;52.396;10.696;2023-02-11T01:48:14;5.60;99.90
29551;DHT22;16488;52.396;10.696;2023-02-11T01:50:41;5.70;99.90
29551;DHT22;16488;52.396;10.696;2023-02-11T01:53:09;5.60;99.90
29551;DHT22;16488;52.396;10.696;2023-02-11T01:55:54;5.60;99.90
29551;DHT22;16488;52.396;10.696;2023-02-11T01:58:41;5.60;99.90
29551;DHT22;16488;52.396;10.696;2023-02-11T02:01:10;5.60;99.90
29551;DHT22;16488;52.396;10.696;2023-02-11T02:03:39;5.70;99.90
29551;DHT22;16488;52.396;10.696;2023-02-11T02:06:14;5.70;99.90
29551;DHT22;16488;52.396;10.696;2023-02-11T02:08:48;5.70;99.90
29551;DHT22;16488;52.396;10.696;2023-02-11T02:11:16;5.70;99.90
29551;DHT22;16488;52.396;10.696;2023-02-11T02:13:42;5.70;99.90
29551;DHT22;16488;52.396;10.696;2023-02-11T02:16:14;5.70;99.90
29551;DHT22;16488;52.396;10.696;2023-02-11T02:38:18;5.70;99.90
29551;DHT22;16488;52.396;10.696;2023-02-11T02:41:02;5.70;99.90
29551;DHT22;16488;52.396;10.696;2023-02-11T02:43:29;5.80;99.90
29551;DHT22;16488;52.396;10.696;2023-02-11T02:46:15;5.80;99.90
29551;DHT22;16488;52.396;10.696;2023-02-11T02:48:41;5.80;99.90
29551;DHT22;16488;52.396;10.696;2023-02-11T02:51:10;5.80;99.90
29551;DHT22;16488;52.396;10.696;2023-02-11T02:56:53;5.80;99.90
29551;DHT22;16488;52.396;10.696;2023-02-11T03:02:14;5.80;99.90
29551;DHT22;16488;52.396;10.696;2023-02-11T03:07:40;5.80;99.90
29551;DHT22;16488;52.396;10.696;2023-02-11T03:10:18;5.70;99.90
29551;DHT22;16488;52.396;10.696;2023-02-11T03:12:47;5.70;99.90
29551;DHT22;16488;52.396;10.696;2023-02-11T03:15:14;5.80;99.90
29551;DHT22;16488;52.396;10.696;2023-02-11T03:17:44;5.70;99.90
29551;DHT22;16488;52.396;10.696;2023-02-11T03:20:14;5.80;99.90
29551;DHT22;16488;52.396;10.696;2023-02-11T03:22:48;5.80;99.90
29551;DHT22;16488;52.396;10.696;2023-02-11T03:25:15;5.80;99.90
29551;DHT22;16488;52.396;10.696;2023-02-11T03:30:31;5.80;99.90
29551;DHT22;16488;52.396;10.696;2023-02-11T03:33:08;5.80;99.90
29551;DHT22;16488;52.396;10.696;2023-02-11T03:35:47;5.80;99.90
29551;DHT22;16488;52.396;10.696;2023-02-11T03:38:20;5.80;99.90
29551;DHT22;16488;52.396;10.696;2023-02-11T03:40:46;5.90;99.90
29551;DHT22;16488;52.396;10.696;2023-02-11T03:43:44;5.90;99.90
29551;DHT22;16488;52.396;10.696;2023-02-11T03:46:11;5.80;99.90
29551;DHT22;16488;52.396;10.696;2023-02-11T03:48:41;5.80;99.90
29551;DHT22;16488;52.396;10.696;2023-02-11T03:51:10;5.80;99.90
29551;DHT22;16488;52.396;10.696;2023-02-11T03:53:38;5.90;99.90
29551;DHT22;16488;52.396;10.696;2023-02-11T03:56:08;5.90;99.90
29551;DHT22;16488;52.396;10.696;2023-02-11T03:58:34;5.90;99.90
29551;DHT22;16488;52.396;10.696;2023-02-11T04:01:00;5.90;99.90
29551;DHT22;16488;52.396;10.696;2023-02-11T04:03:27;5.90;99.90
29551;DHT22;16488;52.396;10.696;2023-02-11T04:05:53;5.90;99.90
29551;DHT22;16488;52.396;10.696;2023-02-11T04:08:19;5.90;99.90
29551;DHT22;16488;52.396;10.696;2023-02-11T04:10:45;5.80;99.90
29551;DHT22;16488;52.396;10.696;2023-02-11T04:13:11;5.80;99.90
29551;DHT22;16488;52.396;10.696;2023-02-11T04:15:36;5.80;99.90
29551;DHT22;16488;52.396;10.696;2023-02-11T04:18:02;5.80;99.90
29551;DHT22;16488;52.396;10.696;2023-02-11T04:20:29;5.80;99.90
29551;DHT22;16488;52.396;10.696;2023-02-11T04:22:54;5.80;99.90
29551;DHT22;16488;52.396;10.696;2023-02-11T04:25:20;5.80;99.90
29551;DHT22;16488;52.396;10.696;2023-02-11T04:27:45;5.80;99.90
29551;DHT22;16488;52.396;10.696;2023-02-11T04:30:11;5.80;99.90
29551;DHT22;16488;52.396;10.696;2023-02-11T04:32:37;5.80;99.90
29551;DHT22;16488;52.396;10.696;2023-02-11T04:35:03;5.80;99.90
29551;DHT22;16488;52.396;10.696;2023-02-11T04:37:29;5.80;99.90
29551;DHT22;16488;52.396;10.696;2023-02-11T04:39:55;5.80;99.90
29551;DHT22;16488;52.396;10.696;2023-02-11T04:42:22;5.80;99.90
29551;DHT22;16488;52.396;10.696;2023-02-11T04:44:48;5.90;99.90
29551;DHT22;16488;52.396;10.696;2023-02-11T04:47:13;5.90;99.90
29551;DHT22;16488;52.396;10.696;2023-02-11T04:49:40;5.90;99.90
29551;DHT22;16488;52.396;10.696;2023-02-11T04:52:06;5.80;99.90
29551;DHT22;16488;52.396;10.696;2023-02-11T04:54:31;5.80;99.90
29551;DHT22;16488;52.396;10.696;2023-02-11T04:56:57;5.80;99.90
29551;DHT22;16488;52.396;10.696;2023-02-11T04:59:22;5.80;99.90
29551;DHT22;16488;52.396;10.696;2023-02-11T05:01:48;5.80;99.90
29551;DHT22;16488;52.396;10.696;2023-02-11T05:04:14;5.80;99.90
29551;DHT22;16488;52.396;10.696;2023-02-11T05:06:40;5.90;99.90
29551;DHT22;16488;52.396;10.696;2023-02-11T05:09:05;5.80;99.90
29551;DHT22;16488;52.396;10.696;2023-02-11T05:11:31;5.90;99.90
29551;DHT22;16488;52.396;10.696;2023-02-11T05:13:57;5.90;99.90
29551;DHT22;16488;52.396;10.696;2023-02-11T05:16:22;5.90;99.90
29551;DHT22;16488;52.396;10.696;2023-02-11T05:18:48;5.80;99.90
29551;DHT22;16488;52.396;10.696;2023-02-11T05:21:16;5.90;99.90
29551;DHT22;16488;52.396;10.696;2023-02-11T05:23:43;5.90;99.90
29551;DHT22;16488;52.396;10.696;2023-02-11T05:26:10;5.90;99.90
29551;DHT22;16488;52.396;10.696;2023-02-11T05:28:35;5.90;99.90
29551;DHT22;16488;52.396;10.696;2023-02-11T05:31:02;5.90;99.90
29551;DHT22;16488;52.396;10.696;2023-02-11T05:33:27;5.90;99.90
29551;DHT22;16488;52.396;10.696;2023-02-11T05:36:04;5.90;99.90
29551;DHT22;16488;52.396;10.696;2023-02-11T05:38:31;5.90;99.90
29551;DHT22;16488;52.396;10.696;2023-02-11T05:40:56;5.90;99.90
29551;DHT22;16488;52.396;10.696;2023-02-11T05:43:22;5.90;99.90
29551;DHT22;16488;52.396;10.696;2023-02-11T05:45:48;5.90;99.90
29551;DHT22;16488;52.396;10.696;2023-02-11T05:48:13;5.90;99.90
29551;DHT22;16488;52.396;10.696;2023-02-11T05:50:39;5.90;99.90
29551;DHT22;16488;52.396;10.696;2023-02-11T05:53:05;5.90;99.90
29551;DHT22;16488;52.396;10.696;2023-02-11T05:55:31;5.90;99.90
29551;DHT22;16488;52.396;10.696;2023-02-11T05:57:57;5.90;99.90
29551;DHT22;16488;52.396;10.696;2023-02-11T06:00:23;6.00;99.90
29551;DHT22;16488;52.396;10.696;2023-02-11T06:02:48;5.90;99.90
29551;DHT22;16488;52.396;10.696;2023-02-11T06:05:14;5.90;99.90
29551;DHT22;16488;52.396;10.696;2023-02-11T06:07:40;5.90;99.90
29551;DHT22;16488;52.396;10.696;2023-02-11T06:10:06;6.00;99.90
29551;DHT22;16488;52.396;10.696;2023-02-11T06:12:32;6.00;99.90
29551;DHT22;16488;52.396;10.696;2023-02-11T06:14:57;6.00;99.90
29551;DHT22;16488;52.396;10.696;2023-02-11T06:17:23;6.00;99.90
29551;DHT22;16488;52.396;10.696;2023-02-11T06:19:49;6.00;99.90
29551;DHT22;16488;52.396;10.696;2023-02-11T06:22:15;6.00;99.90
29551;DHT22;16488;52.396;10.696;2023-02-11T06:24:41;6.00;99.90
29551;DHT22;16488;52.396;10.696;2023-02-11T06:27:07;6.00;99.90
29551;DHT22;16488;52.396;10.696;2023-02-11T06:29:32;6.00;99.90
29551;DHT22;16488;52.396;10.696;2023-02-11T06:31:58;6.00;99.90
29551;DHT22;16488;52.396;10.696;2023-02-11T06:34:26;6.00;99.90
29551;DHT22;16488;52.396;10.696;2023-02-11T06:36:52;6.00;99.90
29551;DHT22;16488;52.396;10.696;2023-02-11T06:39:17;6.10;99.90
29551;DHT22;16488;52.396;10.696;2023-02-11T06:41:45;6.10;99.90
29551;DHT22;16488;52.396;10.696;2023-02-11T06:44:11;6.10;99.90
29551;DHT22;16488;52.396;10.696;2023-02-11T06:46:37;6.10;99.90
29551;DHT22;16488;52.396;10.696;2023-02-11T06:49:03;6.10;99.90
29551;DHT22;16488;52.396;10.696;2023-02-11T06:51:28;6.10;99.90
29551;DHT22;16488;52.396;10.696;2023-02-11T06:53:54;6.10;99.90
29551;DHT22;16488;52.396;10.696;2023-02-11T06:56:21;6.20;99.90
29551;DHT22;16488;52.396;10.696;2023-02-11T06:58:50;6.10;99.90
29551;DHT22;16488;52.396;10.696;2023-02-11T07:01:16;6.10;99.90
29551;DHT22;16488;52.396;10.696;2023-02-11T07:03:43;6.20;99.90
29551;DHT22;16488;52.396;10.696;2023-02-11T07:06:18;6.20;99.90
29551;DHT22;16488;52.396;10.696;2023-02-11T07:08:45;6.20;99.90
29551;DHT22;16488;52.396;10.696;2023-02-11T07:11:14;6.20;99.90
29551;DHT22;16488;52.396;10.696;2023-02-11T07:13:41;6.20;99.90
29551;DHT22;16488;52.396;10.696;2023-02-11T07:16:07;6.20;99.90
29551;DHT22;16488;52.396;10.696;2023-02-11T07:18:33;6.20;99.90
29551;DHT22;16488;52.396;10.696;2023-02-11T07:20:59;6.20;99.90
29551;DHT22;16488;52.396;10.696;2023-02-11T07:23:28;6.30;99.90
29551;DHT22;16488;52.396;10.696;2023-02-11T07:25:53;6.30;99.90
29551;DHT22;16488;52.396;10.696;2023-02-11T07:28:19;6.30;99.90
29551;DHT22;16488;52.396;10.696;2023-02-11T07:30:44;6.30;99.90
29551;DHT22;16488;52.396;10.696;2023-02-11T07:33:10;6.40;99.90
29551;DHT22;16488;52.396;10.696;2023-02-11T07:35:35;6.40;99.90
29551;DHT22;16488;52.396;10.696;2023-02-11T07:38:01;6.40;99.90
29551;DHT22;16488;52.396;10.696;2023-02-11T07:40:27;6.40;99.90
29551;DHT22;16488;52.396;10.696;2023-02-11T07:42:52;6.40;99.90
29551;DHT22;16488;52.396;10.696;2023-02-11T07:45:18;6.40;99.90
29551;DHT22;16488;52.396;10.696;2023-02-11T07:47:43;6.40;99.90
29551;DHT22;16488;52.396;10.696;2023-02-11T07:50:10;6.50;99.90
29551;DHT22;16488;52.396;10.696;2023-02-11T07:52:35;6.50;99.90
29551;DHT22;16488;52.396;10.696;2023-02-11T07:55:01;6.50;99.90
29551;DHT22;16488;52.396;10.696;2023-02-11T07:57:27;6.50;99.90
29551;DHT22;16488;52.396;10.696;2023-02-11T07:59:52;6.50;99.90
29551;DHT22;16488;52.396;10.696;2023-02-11T08:02:18;6.50;99.90
29551;DHT22;16488;52.396;10.696;2023-02-11T08:04:46;6.50;99.90
29551;DHT22;16488;52.396;10.696;2023-02-11T08:07:16;6.50;99.90
29551;DHT22;16488;52.396;10.696;2023-02-11T08:09:42;6.50;99.90
29551;DHT22;16488;52.396;10.696;2023-02-11T08:12:08;6.50;99.90
29551;DHT22;16488;52.396;10.696;2023-02-11T08:14:34;6.50;99.90
29551;DHT22;16488;52.396;10.696;2023-02-11T08:17:00;6.50;99.90
29551;DHT22;16488;52.396;10.696;2023-02-11T08:19:25;6.50;99.90
29551;DHT22;16488;52.396;10.696;2023-02-11T08:21:54;6.60;99.90
29551;DHT22;16488;52.396;10.696;2023-02-11T08:24:20;6.60;99.90
29551;DHT22;16488;52.396;10.696;2023-02-11T08:26:45;6.60;99.90
29551;DHT22;16488;52.396;10.696;2023-02-11T08:29:13;6.60;99.90
29551;DHT22;16488;52.396;10.696;2023-02-11T08:31:42;6.60;99.90
29551;DHT22;16488;52.396;10.696;2023-02-11T08:34:09;6.60;99.90
29551;DHT22;16488;52.396;10.696;2023-02-11T08:36:36;6.60;99.90
29551;DHT22;16488;52.396;10.696;2023-02-11T08:39:08;6.60;99.90
29551;DHT22;16488;52.396;10.696;2023-02-11T08:41:36;6.60;99.90
29551;DHT22;16488;52.396;10.696;2023-02-11T08:44:02;6.60;99.90
29551;DHT22;16488;52.396;10.696;2023-02-11T08:46:28;6.60;99.90
29551;DHT22;16488;52.396;10.696;2023-02-11T08:48:54;6.60;99.90
29551;DHT22;16488;52.396;10.696;2023-02-11T08:51:24;6.60;99.90
29551;DHT22;16488;52.396;10.696;2023-02-11T08:53:52;6.60;99.90
29551;DHT22;16488;52.396;10.696;2023-02-11T08:56:18;6.60;99.90
29551;DHT22;16488;52.396;10.696;2023-02-11T08:58:44;6.70;99.90
29551;DHT22;16488;52.396;10.696;2023-02-11T09:01:14;6.60;99.90
29551;DHT22;16488;52.396;10.696;2023-02-11T09:03:40;6.70;99.90
29551;DHT22;16488;52.396;10.696;2023-02-11T09:06:07;6.70;99.90
29551;DHT22;16488;52.396;10.696;2023-02-11T09:08:34;6.70;99.90
29551;DHT22;16488;52.396;10.696;2023-02-11T09:11:00;6.70;99.90
29551;DHT22;16488;52.396;10.696;2023-02-11T09:13:26;6.80;99.90
29551;DHT22;16488;52.396;10.696;2023-02-11T09:15:52;6.80;99.90
29551;DHT22;16488;52.396;10.696;2023-02-11T09:18:18;6.80;99.90
29551;DHT22;16488;52.396;10.696;2023-02-11T09:20:43;6.80;99.90
29551;DHT22;16488;52.396;10.696;2023-02-11T09:23:09;6.80;99.90
29551;DHT22;16488;52.396;10.696;2023-02-11T09:25:38;6.90;99.90
29551;DHT22;16488;52.396;10.696;2023-02-11T09:28:04;6.80;99.90
29551;DHT22;16488;52.396;10.696;2023-02-11T09:30:30;6.80;99.90
29551;DHT22;16488;52.396;10.696;2023-02-11T09:32:55;6.90;99.90
29551;DHT22;16488;52.396;10.696;2023-02-11T09:35:24;6.90;99.90
29551;DHT22;16488;52.396;10.696;2023-02-11T09:37:50;6.90;99.90
29551;DHT22;16488;52.396;10.696;2023-02-11T09:40:15;6.90;99.90
29551;DHT22;16488;52.396;10.696;2023-02-11T09:43:18;6.90;99.90
29551;DHT22;16488;52.396;10.696;2023-02-11T09:45:45;6.90;99.90
29551;DHT22;16488;52.396;10.696;2023-02-11T09:48:16;6.90;99.90
29551;DHT22;16488;52.396;10.696;2023-02-11T09:50:56;6.90;99.90
29551;DHT22;16488;52.396;10.696;2023-02-11T09:53:27;6.90;99.90
29551;DHT22;16488;52.396;10.696;2023-02-11T09:56:10;6.90;99.90
29551;DHT22;16488;52.396;10.696;2023-02-11T09:58:41;6.90;99.90
29551;DHT22;16488;52.396;10.696;2023-02-11T10:07:40;6.90;99.90
29551;DHT22;16488;52.396;10.696;2023-02-11T10:10:16;6.90;99.90
29551;DHT22;16488;52.396;10.696;2023-02-11T10:15:48;6.90;99.90
29551;DHT22;16488;52.396;10.696;2023-02-11T10:21:50;6.90;99.90
29551;DHT22;16488;52.396;10.696;2023-02-11T10:24:17;6.90;99.90
29551;DHT22;16488;52.396;10.696;2023-02-11T10:26:44;6.90;99.90
29551;DHT22;16488;52.396;10.696;2023-02-11T10:29:27;6.90;99.90
29551;DHT22;16488;52.396;10.696;2023-02-11T10:31:56;6.90;99.90
29551;DHT22;16488;52.396;10.696;2023-02-11T10:34:22;7.00;99.90
29551;DHT22;16488;52.396;10.696;2023-02-11T10:36:47;6.90;99.90
29551;DHT22;16488;52.396;10.696;2023-02-11T10:39:16;7.00;99.90
29551;DHT22;16488;52.396;10.696;2023-02-11T10:41:48;7.00;99.90
29551;DHT22;16488;52.396;10.696;2023-02-11T10:44:25;7.00;99.90
29551;DHT22;16488;52.396;10.696;2023-02-11T10:46:52;7.00;99.90
29551;DHT22;16488;52.396;10.696;2023-02-11T10:49:45;7.00;99.90
29551;DHT22;16488;52.396;10.696;2023-02-11T10:52:29;7.00;99.90
29551;DHT22;16488;52.396;10.696;2023-02-11T10:54:57;6.90;99.90
29551;DHT22;16488;52.396;10.696;2023-02-11T10:57:35;7.00;99.90
29551;DHT22;16488;52.396;10.696;2023-02-11T11:00:05;7.10;99.90
29551;DHT22;16488;52.396;10.696;2023-02-11T11:02:35;7.10;99.90
29551;DHT22;16488;52.396;10.696;2023-02-11T11:05:22;7.10;99.90
29551;DHT22;16488;52.396;10.696;2023-02-11T11:07:55;7.10;99.90
29551;DHT22;16488;52.396;10.696;2023-02-11T11:10:30;7.10;99.90
29551;DHT22;16488;52.396;10.696;2023-02-11T11:12:58;7.10;99.90
29551;DHT22;16488;52.396;10.696;2023-02-11T11:15:29;7.20;99.90
29551;DHT22;16488;52.396;10.696;2023-02-11T11:18:27;7.10;99.90
29551;DHT22;16488;52.396;10.696;2023-02-11T11:20:55;7.20;99.90
29551;DHT22;16488;52.396;10.696;2023-02-11T11:23:22;7.30;99.90
29551;DHT22;16488;52.396;10.696;2023-02-11T11:26:04;7.20;99.90
29551;DHT22;16488;52.396;10.696;2023-02-11T11:28:36;7.20;99.90
29551;DHT22;16488;52.396;10.696;2023-02-11T11:31:04;7.20;99.90
29551;DHT22;16488;52.396;10.696;2023-02-11T11:33:33;7.20;99.90
29551;DHT22;16488;52.396;10.696;2023-02-11T11:36:04;7.30;99.90
29551;DHT22;16488;52.396;10.696;2023-02-11T11:38:31;7.20;99.90
29551;DHT22;16488;52.396;10.696;2023-02-11T11:41:19;7.30;99.90
29551;DHT22;16488;52.396;10.696;2023-02-11T11:46:42;7.30;99.90
29551;DHT22;16488;52.396;10.696;2023-02-11T11:49:28;7.20;99.90
29551;DHT22;16488;52.396;10.696;2023-02-11T11:52:24;7.30;99.90
29551;DHT22;16488;52.396;10.696;2023-02-11T11:55:21;7.30;99.90
29551;DHT22;16488;52.396;10.696;2023-02-11T11:57:48;7.30;99.90
29551;DHT22;16488;52.396;10.696;2023-02-11T12:00:20;7.30;99.90
29551;DHT22;16488;52.396;10.696;2023-02-11T12:05:59;7.40;99.90
29551;DHT22;16488;52.396;10.696;2023-02-11T12:08:42;7.40;99.90
29551;DHT22;16488;52.396;10.696;2023-02-11T12:13:58;7.40;99.90
29551;DHT22;16488;52.396;10.696;2023-02-11T12:19:25;7.40;99.90
29551;DHT22;16488;52.396;10.696;2023-02-11T12:25:00;7.50;99.90
29551;DHT22;16488;52.396;10.696;2023-02-11T12:30:47;7.50;99.90
29551;DHT22;16488;52.396;10.696;2023-02-11T12:33:43;7.50;99.90
29551;DHT22;16488;52.396;10.696;2023-02-11T12:36:34;7.50;99.90
29551;DHT22;16488;52.396;10.696;2023-02-11T12:48:17;7.60;99.90
29551;DHT22;16488;52.396;10.696;2023-02-11T12:56:49;7.60;99.90
29551;DHT22;16488;52.396;10.696;2023-02-11T13:02:02;7.60;99.90
29551;DHT22;16488;52.396;10.696;2023-02-11T13:04:36;7.60;99.90
29551;DHT22;16488;52.396;10.696;2023-02-11T13:07:13;7.60;99.90
29551;DHT22;16488;52.396;10.696;2023-02-11T13:09:44;7.60;99.90
29551;DHT22;16488;52.396;10.696;2023-02-11T13:12:13;7.70;99.90
29551;DHT22;16488;52.396;10.696;2023-02-11T13:15:02;7.70;99.90
29551;DHT22;16488;52.396;10.696;2023-02-11T13:17:37;7.60;99.90
29551;DHT22;16488;52.396;10.696;2023-02-11T13:20:17;7.70;99.90
29551;DHT22;16488;52.396;10.696;2023-02-11T13:22:51;7.70;99.90
29551;DHT22;16488;52.396;10.696;2023-02-11T13:25:24;7.70;99.90
29551;DHT22;16488;52.396;10.696;2023-02-11T13:27:58;7.70;99.90
29551;DHT22;16488;52.396;10.696;2023-02-11T13:30:37;7.70;99.90
29551;DHT22;16488;52.396;10.696;2023-02-11T13:36:09;7.70;99.90
29551;DHT22;16488;52.396;10.696;2023-02-11T13:38:34;7.70;99.90
29551;DHT22;16488;52.396;10.696;2023-02-11T13:41:06;7.70;99.90
29551;DHT22;16488;52.396;10.696;2023-02-11T13:43:39;7.80;99.90
29551;DHT22;16488;52.396;10.696;2023-02-11T13:46:07;7.80;99.90
29551;DHT22;16488;52.396;10.696;2023-02-11T13:48:53;7.70;99.90
29551;DHT22;16488;52.396;10.696;2023-02-11T13:51:36;7.80;99.90
29551;DHT22;16488;52.396;10.696;2023-02-11T13:54:04;7.80;99.90
29551;DHT22;16488;52.396;10.696;2023-02-11T13:56:37;7.80;99.90
29551;DHT22;16488;52.396;10.696;2023-02-11T14:02:30;7.80;99.90
29551;DHT22;16488;52.396;10.696;2023-02-11T14:05:25;7.80;99.90
29551;DHT22;16488;52.396;10.696;2023-02-11T14:10:59;7.80;99.90
29551;DHT22;16488;52.396;10.696;2023-02-11T14:13:29;7.80;99.90
29551;DHT22;16488;52.396;10.696;2023-02-11T14:16:10;7.80;99.90
29551;DHT22;16488;52.396;10.696;2023-02-11T14:26:51;7.80;99.90
29551;DHT22;16488;52.396;10.696;2023-02-11T14:29:37;7.80;99.90
29551;DHT22;16488;52.396;10.696;2023-02-11T14:41:17;7.80;99.90
29551;DHT22;16488;52.396;10.696;2023-02-11T14:43:50;7.90;99.90
29551;DHT22;16488;52.396;10.696;2023-02-11T14:46:18;7.90;99.90
29551;DHT22;16488;52.396;10.696;2023-02-11T14:48:47;7.90;99.90
29551;DHT22;16488;52.396;10.696;2023-02-11T14:51:42;7.90;99.90
29551;DHT22;16488;52.396;10.696;2023-02-11T14:54:13;7.90;99.90
29551;DHT22;16488;52.396;10.696;2023-02-11T14:56:41;7.90;99.90
29551;DHT22;16488;52.396;10.696;2023-02-11T14:59:33;7.90;99.90
29551;DHT22;16488;52.396;10.696;2023-02-11T15:01:59;8.00;99.90
29551;DHT22;16488;52.396;10.696;2023-02-11T15:04:28;8.00;99.90
29551;DHT22;16488;52.396;10.696;2023-02-11T15:06:56;7.90;99.90
29551;DHT22;16488;52.396;10.696;2023-02-11T15:09:33;8.00;99.90
29551;DHT22;16488;52.396;10.696;2023-02-11T15:12:02;8.00;99.90
29551;DHT22;16488;52.396;10.696;2023-02-11T15:14:32;8.00;99.90
29551;DHT22;16488;52.396;10.696;2023-02-11T15:17:01;7.90;99.90
29551;DHT22;16488;52.396;10.696;2023-02-11T15:19:28;8.00;99.90
29551;DHT22;16488;52.396;10.696;2023-02-11T15:21:56;8.00;99.90
29551;DHT22;16488;52.396;10.696;2023-02-11T15:29:38;8.00;99.90
29551;DHT22;16488;52.396;10.696;2023-02-11T15:32:14;8.00;99.90
29551;DHT22;16488;52.396;10.696;2023-02-11T15:34:41;8.00;99.90
29551;DHT22;16488;52.396;10.696;2023-02-11T15:37:21;8.00;99.90
29551;DHT22;16488;52.396;10.696;2023-02-11T15:39:47;8.00;99.90
29551;DHT22;16488;52.396;10.696;2023-02-11T15:42:26;8.00;99.90
29551;DHT22;16488;52.396;10.696;2023-02-11T15:47:41;8.00;99.90
29551;DHT22;16488;52.396;10.696;2023-02-11T15:50:22;8.00;99.90
29551;DHT22;16488;52.396;10.696;2023-02-11T15:52:48;8.00;99.90
29551;DHT22;16488;52.396;10.696;2023-02-11T15:55:16;8.00;99.90
29551;DHT22;16488;52.396;10.696;2023-02-11T15:57:53;8.00;99.90
29551;DHT22;16488;52.396;10.696;2023-02-11T16:00:23;8.00;99.90
29551;DHT22;16488;52.396;10.696;2023-02-11T16:02:51;8.00;99.90
29551;DHT22;16488;52.396;10.696;2023-02-11T16:05:27;8.00;99.90
29551;DHT22;16488;52.396;10.696;2023-02-11T16:07:54;8.00;99.90
29551;DHT22;16488;52.396;10.696;2023-02-11T16:10:31;7.90;99.90
29551;DHT22;16488;52.396;10.696;2023-02-11T16:17:59;7.90;99.90
29551;DHT22;16488;52.396;10.696;2023-02-11T16:20:25;7.90;99.90
29551;DHT22;16488;52.396;10.696;2023-02-11T16:22:51;7.90;99.90
29551;DHT22;16488;52.396;10.696;2023-02-11T16:25:20;7.90;99.90
29551;DHT22;16488;52.396;10.696;2023-02-11T16:27:50;7.80;99.90
29551;DHT22;16488;52.396;10.696;2023-02-11T16:30:33;7.90;99.90
29551;DHT22;16488;52.396;10.696;2023-02-11T16:32:59;7.90;99.90
29551;DHT22;16488;52.396;10.696;2023-02-11T16:35:24;7.90;99.90
29551;DHT22;16488;52.396;10.696;2023-02-11T16:37:50;7.90;99.90
29551;DHT22;16488;52.396;10.696;2023-02-11T16:40:16;7.90;99.90
29551;DHT22;16488;52.396;10.696;2023-02-11T16:42:42;7.80;99.90
29551;DHT22;16488;52.396;10.696;2023-02-11T16:45:08;7.90;99.90
29551;DHT22;16488;52.396;10.696;2023-02-11T16:47:34;7.80;99.90
29551;DHT22;16488;52.396;10.696;2023-02-11T16:50:00;7.80;99.90
29551;DHT22;16488;52.396;10.696;2023-02-11T16:52:26;7.80;99.90
29551;DHT22;16488;52.396;10.696;2023-02-11T16:54:52;7.80;99.90
29551;DHT22;16488;52.396;10.696;2023-02-11T16:57:20;7.80;99.90
29551;DHT22;16488;52.396;10.696;2023-02-11T16:59:46;7.80;99.90
29551;DHT22;16488;52.396;10.696;2023-02-11T17:04:41;7.80;99.90
29551;DHT22;16488;52.396;10.696;2023-02-11T17:07:07;7.80;99.90
29551;DHT22;16488;52.396;10.696;2023-02-11T17:09:36;7.70;99.90
29551;DHT22;16488;52.396;10.696;2023-02-11T17:12:01;7.80;99.90
29551;DHT22;16488;52.396;10.696;2023-02-11T17:14:27;7.70;99.90
29551;DHT22;16488;52.396;10.696;2023-02-11T17:16:53;7.70;99.90
29551;DHT22;16488;52.396;10.696;2023-02-11T17:19:19;7.70;99.90
29551;DHT22;16488;52.396;10.696;2023-02-11T17:21:50;7.70;99.90
29551;DHT22;16488;52.396;10.696;2023-02-11T17:24:17;7.70;99.90
29551;DHT22;16488;52.396;10.696;2023-02-11T17:26:44;7.70;99.90
29551;DHT22;16488;52.396;10.696;2023-02-11T17:29:14;7.70;99.90
29551;DHT22;16488;52.396;10.696;2023-02-11T17:31:40;7.70;99.90
29551;DHT22;16488;52.396;10.696;2023-02-11T17:34:06;7.70;99.90
29551;DHT22;16488;52.396;10.696;2023-02-11T17:36:32;7.70;99.90
29551;DHT22;16488;52.396;10.696;2023-02-11T17:38:58;7.70;99.90
29551;DHT22;16488;52.396;10.696;2023-02-11T17:41:24;7.60;99.90
29551;DHT22;16488;52.396;10.696;2023-02-11T17:43:50;7.60;99.90
29551;DHT22;16488;52.396;10.696;2023-02-11T17:46:16;7.60;99.90
29551;DHT22;16488;52.396;10.696;2023-02-11T17:48:42;7.60;99.90